sensor_id;sensor_type;location;lat;lon;timestamp;pressure;altitude;pressure_sealevel;temperature;humidity
10008;BME280;5043;41.766;26.204;2023-09-19T00:02:14;101207.94;;;15.46;97.78
10008;BME280;5043;41.766;26.204;2023-09-19T00:04:39;101254.97;;;15.66;98.81
10008;BME280;5043;41.766;26.204;2023-09-19T00:07:05;101297.56;;;15.87;98.94
10008;BME280;5043;41.766;26.204;2023-09-19T00:09:31;101281.53;;;15.77;99.39
10008;BME280;5043;41.766;26.204;2023-09-19T00:12:05;101257.16;;;15.61;98.95
10008;BME280;5043;41.766;26.204;2023-09-19T00:14:31;101300.47;;;15.63;100.00
10008;BME280;5043;41.766;26.204;2023-09-19T00:17:00;101256.75;;;15.45;100.00
10008;BME280;5043;41.766;26.204;2023-09-19T00:19:26;101281.84;;;15.63;100.00
10008;BME280;5043;41.766;26.204;2023-09-19T00:21:51;101234.19;;;15.29;100.00
10008;BME280;5043;41.766;26.204;2023-09-19T00:24:18;101275.47;;;15.55;100.00
10008;BME280;5043;41.766;26.204;2023-09-19T00:26:43;101248.09;;;15.32;100.00
10008;BME280;5043;41.766;26.204;2023-09-19T00:29:09;101300.09;;;15.57;100.00
10008;BME280;5043;41.766;26.204;2023-09-19T00:31:34;101288.69;;;15.45;100.00
10008;BME280;5043;41.766;26.204;2023-09-19T00:34:02;101282.97;;;15.50;100.00
10008;BME280;5043;41.766;26.204;2023-09-19T00:36:35;101293.06;;;15.35;100.00
10008;BME280;5043;41.766;26.204;2023-09-19T00:39:01;101283.72;;;15.41;100.00
10008;BME280;5043;41.766;26.204;2023-09-19T00:41:28;101277.59;;;15.29;100.00
10008;BME280;5043;41.766;26.204;2023-09-19T00:43:55;101276.31;;;15.24;100.00
10008;BME280;5043;41.766;26.204;2023-09-19T00:46:21;101281.00;;;15.20;100.00
10008;BME280;5043;41.766;26.204;2023-09-19T00:48:46;101244.31;;;15.03;100.00
10008;BME280;5043;41.766;26.204;2023-09-19T00:51:12;101292.50;;;15.21;100.00
10008;BME280;5043;41.766;26.204;2023-09-19T00:53:39;101279.69;;;15.14;100.00
10008;BME280;5043;41.766;26.204;2023-09-19T00:56:11;101294.19;;;15.10;100.00
10008;BME280;5043;41.766;26.204;2023-09-19T00:58:37;101290.47;;;15.02;100.00
10008;BME280;5043;41.766;26.204;2023-09-19T01:01:05;101301.94;;;15.13;100.00
10008;BME280;5043;41.766;26.204;2023-09-19T01:03:33;101307.28;;;15.02;100.00
10008;BME280;5043;41.766;26.204;2023-09-19T01:06:01;101296.03;;;14.99;100.00
10008;BME280;5043;41.766;26.204;2023-09-19T01:08:27;101264.22;;;14.77;100.00
10008;BME280;5043;41.766;26.204;2023-09-19T01:11:08;101260.94;;;14.73;100.00
10008;BME280;5043;41.766;26.204;2023-09-19T01:14:06;101297.84;;;14.98;100.00
10008;BME280;5043;41.766;26.204;2023-09-19T01:28:07;101303.06;;;14.89;100.00
10008;BME280;5043;41.766;26.204;2023-09-19T01:30:43;101305.97;;;14.75;100.00
10008;BME280;5043;41.766;26.204;2023-09-19T01:33:09;101296.69;;;14.80;100.00
10008;BME280;5043;41.766;26.204;2023-09-19T01:35:40;101328.91;;;14.87;100.00
10008;BME280;5043;41.766;26.204;2023-09-19T01:38:06;101283.25;;;14.82;100.00
10008;BME280;5043;41.766;26.204;2023-09-19T01:40:50;101300.41;;;14.89;100.00
10008;BME280;5043;41.766;26.204;2023-09-19T01:43:32;101310.81;;;14.81;100.00
10008;BME280;5043;41.766;26.204;2023-09-19T01:46:21;101286.41;;;14.87;100.00
10008;BME280;5043;41.766;26.204;2023-09-19T01:52:03;101291.09;;;14.94;100.00
10008;BME280;5043;41.766;26.204;2023-09-19T01:54:34;101311.75;;;15.02;100.00
10008;BME280;5043;41.766;26.204;2023-09-19T01:57:13;101274.56;;;14.80;100.00
10008;BME280;5043;41.766;26.204;2023-09-19T02:00:02;101322.13;;;15.05;100.00
10008;BME280;5043;41.766;26.204;2023-09-19T02:02:34;101274.34;;;14.83;100.00
10008;BME280;5043;41.766;26.204;2023-09-19T02:05:04;101297.75;;;15.00;100.00
10008;BME280;5043;41.766;26.204;2023-09-19T02:07:30;101290.25;;;14.94;100.00
10008;BME280;5043;41.766;26.204;2023-09-19T02:09:57;101309.06;;;15.13;100.00
10008;BME280;5043;41.766;26.204;2023-09-19T02:12:25;101303.59;;;15.14;100.00
10008;BME280;5043;41.766;26.204;2023-09-19T02:14:50;101301.69;;;15.17;100.00
10008;BME280;5043;41.766;26.204;2023-09-19T02:17:16;101289.97;;;15.08;100.00
10008;BME280;5043;41.766;26.204;2023-09-19T02:19:42;101301.22;;;15.00;100.00
10008;BME280;5043;41.766;26.204;2023-09-19T02:22:08;101295.75;;;15.13;100.00
10008;BME280;5043;41.766;26.204;2023-09-19T02:24:36;101253.91;;;14.94;100.00
10008;BME280;5043;41.766;26.204;2023-09-19T02:27:02;101300.75;;;15.06;100.00
10008;BME280;5043;41.766;26.204;2023-09-19T02:29:32;101299.16;;;15.04;100.00
10008;BME280;5043;41.766;26.204;2023-09-19T02:32:00;101281.78;;;14.89;100.00
10008;BME280;5043;41.766;26.204;2023-09-19T02:34:27;101302.22;;;14.99;100.00
10008;BME280;5043;41.766;26.204;2023-09-19T02:36:52;101297.03;;;14.98;100.00
10008;BME280;5043;41.766;26.204;2023-09-19T02:39:20;101255.50;;;14.75;100.00
10008;BME280;5043;41.766;26.204;2023-09-19T02:41:45;101259.84;;;14.76;100.00
10008;BME280;5043;41.766;26.204;2023-09-19T02:44:11;101262.16;;;14.69;100.00
10008;BME280;5043;41.766;26.204;2023-09-19T02:46:37;101295.59;;;14.83;100.00
10008;BME280;5043;41.766;26.204;2023-09-19T02:49:03;101284.47;;;14.78;100.00
10008;BME280;5043;41.766;26.204;2023-09-19T02:51:32;101290.75;;;14.66;100.00
10008;BME280;5043;41.766;26.204;2023-09-19T02:54:01;101252.75;;;14.54;100.00
10008;BME280;5043;41.766;26.204;2023-09-19T02:56:29;101282.78;;;14.66;100.00
10008;BME280;5043;41.766;26.204;2023-09-19T02:58:56;101295.72;;;14.59;100.00
10008;BME280;5043;41.766;26.204;2023-09-19T03:01:21;101300.66;;;14.64;100.00
10008;BME280;5043;41.766;26.204;2023-09-19T03:03:47;101298.16;;;14.62;100.00
10008;BME280;5043;41.766;26.204;2023-09-19T03:06:13;101286.66;;;14.39;100.00
10008;BME280;5043;41.766;26.204;2023-09-19T03:08:39;101305.16;;;14.41;100.00
10008;BME280;5043;41.766;26.204;2023-09-19T03:11:06;101290.41;;;14.48;100.00
10008;BME280;5043;41.766;26.204;2023-09-19T03:13:32;101301.75;;;14.50;100.00
10008;BME280;5043;41.766;26.204;2023-09-19T03:15:58;101285.97;;;14.49;100.00
10008;BME280;5043;41.766;26.204;2023-09-19T03:18:26;101283.31;;;14.49;100.00
10008;BME280;5043;41.766;26.204;2023-09-19T03:20:56;101280.88;;;14.45;100.00
10008;BME280;5043;41.766;26.204;2023-09-19T03:23:22;101295.72;;;14.48;100.00
10008;BME280;5043;41.766;26.204;2023-09-19T03:25:47;101270.25;;;14.45;100.00
10008;BME280;5043;41.766;26.204;2023-09-19T03:28:13;101276.44;;;14.46;100.00
10008;BME280;5043;41.766;26.204;2023-09-19T03:30:40;101252.66;;;14.33;100.00
10008;BME280;5043;41.766;26.204;2023-09-19T03:33:06;101259.66;;;14.45;100.00
10008;BME280;5043;41.766;26.204;2023-09-19T03:35:31;101271.13;;;14.46;100.00
10008;BME280;5043;41.766;26.204;2023-09-19T03:37:57;101278.84;;;14.60;100.00
10008;BME280;5043;41.766;26.204;2023-09-19T03:40:23;101269.53;;;14.55;100.00
10008;BME280;5043;41.766;26.204;2023-09-19T03:42:50;101265.19;;;14.65;100.00
10008;BME280;5043;41.766;26.204;2023-09-19T03:45:16;101244.31;;;14.49;100.00
10008;BME280;5043;41.766;26.204;2023-09-19T03:47:43;101291.25;;;14.60;100.00
10008;BME280;5043;41.766;26.204;2023-09-19T03:50:09;101223.06;;;14.27;100.00
10008;BME280;5043;41.766;26.204;2023-09-19T03:52:36;101262.19;;;14.58;100.00
10008;BME280;5043;41.766;26.204;2023-09-19T03:55:03;101215.72;;;14.41;100.00
10008;BME280;5043;41.766;26.204;2023-09-19T03:57:31;101271.34;;;14.65;100.00
10008;BME280;5043;41.766;26.204;2023-09-19T03:59:57;101260.13;;;14.62;100.00
10008;BME280;5043;41.766;26.204;2023-09-19T04:02:23;101262.06;;;14.60;100.00
10008;BME280;5043;41.766;26.204;2023-09-19T04:04:50;101271.69;;;14.61;100.00
10008;BME280;5043;41.766;26.204;2023-09-19T04:07:16;101276.28;;;14.59;100.00
10008;BME280;5043;41.766;26.204;2023-09-19T04:09:41;101240.00;;;14.37;100.00
10008;BME280;5043;41.766;26.204;2023-09-19T04:12:07;101283.06;;;14.40;100.00
10008;BME280;5043;41.766;26.204;2023-09-19T04:14:34;101304.78;;;14.57;100.00
10008;BME280;5043;41.766;26.204;2023-09-19T04:16:59;101272.91;;;14.57;100.00
10008;BME280;5043;41.766;26.204;2023-09-19T04:19:26;101251.94;;;14.31;100.00
10008;BME280;5043;41.766;26.204;2023-09-19T04:21:51;101285.13;;;14.48;100.00
10008;BME280;5043;41.766;26.204;2023-09-19T04:24:17;101257.66;;;14.25;100.00
10008;BME280;5043;41.766;26.204;2023-09-19T04:26:45;101250.19;;;14.19;100.00
10008;BME280;5043;41.766;26.204;2023-09-19T04:29:10;101284.75;;;14.41;100.00
10008;BME280;5043;41.766;26.204;2023-09-19T04:31:36;101281.13;;;14.42;100.00
10008;BME280;5043;41.766;26.204;2023-09-19T04:34:03;101285.00;;;14.38;100.00
10008;BME280;5043;41.766;26.204;2023-09-19T04:36:29;101293.19;;;14.35;100.00
10008;BME280;5043;41.766;26.204;2023-09-19T04:38:55;101273.16;;;14.31;100.00
10008;BME280;5043;41.766;26.204;2023-09-19T04:41:20;101235.72;;;14.12;100.00
10008;BME280;5043;41.766;26.204;2023-09-19T04:43:47;101293.31;;;14.45;100.00
10008;BME280;5043;41.766;26.204;2023-09-19T04:46:14;101308.16;;;14.48;100.00
10008;BME280;5043;41.766;26.204;2023-09-19T04:48:40;101280.03;;;14.45;100.00
10008;BME280;5043;41.766;26.204;2023-09-19T04:51:06;101277.25;;;14.46;100.00
10008;BME280;5043;41.766;26.204;2023-09-19T04:53:32;101288.09;;;14.66;100.00
10008;BME280;5043;41.766;26.204;2023-09-19T04:55:57;101276.06;;;14.51;100.00
10008;BME280;5043;41.766;26.204;2023-09-19T04:58:23;101276.41;;;14.68;100.00
10008;BME280;5043;41.766;26.204;2023-09-19T05:00:48;101299.09;;;14.83;100.00
10008;BME280;5043;41.766;26.204;2023-09-19T05:03:17;101286.41;;;14.98;100.00
10008;BME280;5043;41.766;26.204;2023-09-19T05:05:42;101286.41;;;14.87;100.00
10008;BME280;5043;41.766;26.204;2023-09-19T05:08:08;101280.22;;;14.97;100.00
10008;BME280;5043;41.766;26.204;2023-09-19T05:10:35;101279.13;;;15.00;100.00
10008;BME280;5043;41.766;26.204;2023-09-19T05:13:04;101259.94;;;14.96;100.00
10008;BME280;5043;41.766;26.204;2023-09-19T05:15:30;101267.13;;;15.17;100.00
10008;BME280;5043;41.766;26.204;2023-09-19T05:17:56;101273.72;;;15.33;100.00
10008;BME280;5043;41.766;26.204;2023-09-19T05:20:22;101250.81;;;15.10;100.00
10008;BME280;5043;41.766;26.204;2023-09-19T05:23:04;101256.59;;;15.26;100.00
10008;BME280;5043;41.766;26.204;2023-09-19T05:25:34;101273.91;;;15.41;100.00
10008;BME280;5043;41.766;26.204;2023-09-19T05:28:03;101260.88;;;15.38;100.00
10008;BME280;5043;41.766;26.204;2023-09-19T05:30:34;101217.44;;;15.28;100.00
10008;BME280;5043;41.766;26.204;2023-09-19T05:33:04;101271.84;;;15.76;100.00
10008;BME280;5043;41.766;26.204;2023-09-19T05:35:31;101277.00;;;15.89;100.00
10008;BME280;5043;41.766;26.204;2023-09-19T05:37:57;101287.81;;;15.97;100.00
10008;BME280;5043;41.766;26.204;2023-09-19T05:40:24;101283.19;;;15.99;100.00
10008;BME280;5043;41.766;26.204;2023-09-19T05:42:50;101291.06;;;16.01;100.00
10008;BME280;5043;41.766;26.204;2023-09-19T05:45:16;101266.00;;;15.82;100.00
10008;BME280;5043;41.766;26.204;2023-09-19T05:47:50;101279.88;;;16.07;100.00
10008;BME280;5043;41.766;26.204;2023-09-19T05:50:17;101234.06;;;15.82;100.00
10008;BME280;5043;41.766;26.204;2023-09-19T05:52:43;101295.72;;;16.29;100.00
10008;BME280;5043;41.766;26.204;2023-09-19T05:55:17;101300.50;;;16.35;100.00
10008;BME280;5043;41.766;26.204;2023-09-19T05:57:43;101297.00;;;16.55;100.00
10008;BME280;5043;41.766;26.204;2023-09-19T06:00:08;101251.47;;;16.37;100.00
10008;BME280;5043;41.766;26.204;2023-09-19T06:02:36;101287.91;;;16.67;100.00
10008;BME280;5043;41.766;26.204;2023-09-19T06:05:04;101295.38;;;16.73;99.17
10008;BME280;5043;41.766;26.204;2023-09-19T06:07:34;101269.88;;;16.80;98.29
10008;BME280;5043;41.766;26.204;2023-09-19T06:10:04;101274.41;;;16.99;97.69
10008;BME280;5043;41.766;26.204;2023-09-19T06:12:37;101301.94;;;17.09;97.09
10008;BME280;5043;41.766;26.204;2023-09-19T06:15:04;101308.81;;;17.21;96.89
10008;BME280;5043;41.766;26.204;2023-09-19T06:17:31;101261.38;;;17.05;96.79
10008;BME280;5043;41.766;26.204;2023-09-19T06:19:56;101292.00;;;17.49;95.71
10008;BME280;5043;41.766;26.204;2023-09-19T06:22:22;101304.94;;;17.73;94.71
10008;BME280;5043;41.766;26.204;2023-09-19T06:24:47;101303.28;;;17.91;94.03
10008;BME280;5043;41.766;26.204;2023-09-19T06:27:13;101313.50;;;18.05;93.18
10008;BME280;5043;41.766;26.204;2023-09-19T06:29:39;101273.19;;;17.89;92.43
10008;BME280;5043;41.766;26.204;2023-09-19T06:32:08;101308.50;;;18.29;92.17
10008;BME280;5043;41.766;26.204;2023-09-19T06:34:34;101309.88;;;18.52;91.51
10008;BME280;5043;41.766;26.204;2023-09-19T06:36:59;101304.69;;;18.51;90.48
10008;BME280;5043;41.766;26.204;2023-09-19T06:39:26;101308.56;;;18.66;89.91
10008;BME280;5043;41.766;26.204;2023-09-19T06:41:52;101286.03;;;18.69;89.50
10008;BME280;5043;41.766;26.204;2023-09-19T06:44:21;101303.16;;;19.03;89.18
10008;BME280;5043;41.766;26.204;2023-09-19T06:46:50;101296.91;;;19.12;87.94
10008;BME280;5043;41.766;26.204;2023-09-19T06:49:17;101310.31;;;19.30;86.83
10008;BME280;5043;41.766;26.204;2023-09-19T06:51:43;101313.53;;;19.33;86.48
10008;BME280;5043;41.766;26.204;2023-09-19T06:54:12;101319.25;;;19.48;86.36
10008;BME280;5043;41.766;26.204;2023-09-19T06:56:37;101324.53;;;19.57;86.36
10008;BME280;5043;41.766;26.204;2023-09-19T06:59:02;101306.22;;;19.70;86.55
10008;BME280;5043;41.766;26.204;2023-09-19T07:01:31;101299.63;;;19.82;85.30
10008;BME280;5043;41.766;26.204;2023-09-19T07:03:58;101274.78;;;19.72;84.46
10008;BME280;5043;41.766;26.204;2023-09-19T07:06:23;101314.22;;;20.06;84.52
10008;BME280;5043;41.766;26.204;2023-09-19T07:08:49;101323.63;;;20.27;84.38
10008;BME280;5043;41.766;26.204;2023-09-19T07:11:15;101312.81;;;20.45;83.06
10008;BME280;5043;41.766;26.204;2023-09-19T07:13:44;101303.97;;;20.52;81.70
10008;BME280;5043;41.766;26.204;2023-09-19T07:16:10;101312.19;;;20.51;80.76
10008;BME280;5043;41.766;26.204;2023-09-19T07:18:52;101296.47;;;20.56;80.63
10008;BME280;5043;41.766;26.204;2023-09-19T07:21:18;101324.47;;;20.95;79.34
10008;BME280;5043;41.766;26.204;2023-09-19T07:23:43;101309.50;;;21.35;77.32
10008;BME280;5043;41.766;26.204;2023-09-19T07:26:08;101298.13;;;21.65;76.12
10008;BME280;5043;41.766;26.204;2023-09-19T07:28:34;101307.72;;;21.67;75.22
10008;BME280;5043;41.766;26.204;2023-09-19T07:31:02;101287.22;;;21.66;74.50
10008;BME280;5043;41.766;26.204;2023-09-19T07:33:28;101298.19;;;21.89;73.65
10008;BME280;5043;41.766;26.204;2023-09-19T07:35:54;101277.84;;;21.86;73.71
10008;BME280;5043;41.766;26.204;2023-09-19T07:38:20;101289.09;;;21.98;73.19
10008;BME280;5043;41.766;26.204;2023-09-19T07:40:46;101301.03;;;21.96;73.68
10008;BME280;5043;41.766;26.204;2023-09-19T07:43:12;101284.88;;;21.87;73.08
10008;BME280;5043;41.766;26.204;2023-09-19T07:45:37;101293.28;;;22.25;71.94
10008;BME280;5043;41.766;26.204;2023-09-19T07:48:03;101276.25;;;22.32;71.09
10008;BME280;5043;41.766;26.204;2023-09-19T07:50:38;101284.28;;;22.48;70.39
10008;BME280;5043;41.766;26.204;2023-09-19T07:53:05;101287.59;;;22.58;69.59
10008;BME280;5043;41.766;26.204;2023-09-19T07:55:32;101285.41;;;22.70;69.80
10008;BME280;5043;41.766;26.204;2023-09-19T07:57:59;101266.69;;;22.85;68.39
10008;BME280;5043;41.766;26.204;2023-09-19T08:00:24;101264.75;;;23.01;67.21
10008;BME280;5043;41.766;26.204;2023-09-19T08:02:50;101264.88;;;23.31;66.69
10008;BME280;5043;41.766;26.204;2023-09-19T08:05:17;101236.22;;;23.15;65.56
10008;BME280;5043;41.766;26.204;2023-09-19T08:07:45;101250.56;;;23.38;64.66
10008;BME280;5043;41.766;26.204;2023-09-19T08:10:21;101251.91;;;23.79;63.15
10008;BME280;5043;41.766;26.204;2023-09-19T08:12:48;101259.06;;;23.87;63.19
10008;BME280;5043;41.766;26.204;2023-09-19T08:17:39;101264.19;;;24.48;60.09
10008;BME280;5043;41.766;26.204;2023-09-19T08:20:05;101238.13;;;24.55;59.04
10008;BME280;5043;41.766;26.204;2023-09-19T08:22:31;101254.94;;;24.72;57.27
10008;BME280;5043;41.766;26.204;2023-09-19T08:24:57;101233.94;;;24.53;56.73
10008;BME280;5043;41.766;26.204;2023-09-19T08:27:24;101226.31;;;24.56;57.18
10008;BME280;5043;41.766;26.204;2023-09-19T08:29:52;101264.63;;;24.81;55.38
10008;BME280;5043;41.766;26.204;2023-09-19T08:32:18;101238.72;;;25.01;55.38
10008;BME280;5043;41.766;26.204;2023-09-19T08:34:49;101239.97;;;25.20;54.21
10008;BME280;5043;41.766;26.204;2023-09-19T08:37:14;101233.13;;;25.24;53.47
10008;BME280;5043;41.766;26.204;2023-09-19T08:39:41;101192.41;;;25.25;53.23
10008;BME280;5043;41.766;26.204;2023-09-19T08:42:07;101245.31;;;25.56;52.13
10008;BME280;5043;41.766;26.204;2023-09-19T08:44:37;101220.81;;;25.85;52.42
10008;BME280;5043;41.766;26.204;2023-09-19T08:47:15;101209.69;;;26.01;50.00
10008;BME280;5043;41.766;26.204;2023-09-19T08:50:00;101233.78;;;26.24;48.81
10008;BME280;5043;41.766;26.204;2023-09-19T08:52:39;101209.19;;;26.53;48.56
10008;BME280;5043;41.766;26.204;2023-09-19T08:55:06;101217.31;;;26.59;47.54
10008;BME280;5043;41.766;26.204;2023-09-19T08:57:36;101167.50;;;26.47;47.37
10008;BME280;5043;41.766;26.204;2023-09-19T09:00:08;101194.31;;;26.77;46.63
10008;BME280;5043;41.766;26.204;2023-09-19T09:02:38;101170.19;;;26.95;45.51
10008;BME280;5043;41.766;26.204;2023-09-19T09:05:11;101191.91;;;27.21;45.02
10008;BME280;5043;41.766;26.204;2023-09-19T09:07:37;101198.56;;;27.25;44.71
10008;BME280;5043;41.766;26.204;2023-09-19T09:10:03;101135.81;;;27.08;44.86
10008;BME280;5043;41.766;26.204;2023-09-19T09:12:30;101179.81;;;27.30;43.78
10008;BME280;5043;41.766;26.204;2023-09-19T09:14:58;101169.00;;;27.50;43.81
10008;BME280;5043;41.766;26.204;2023-09-19T09:17:24;101192.13;;;27.78;43.22
10008;BME280;5043;41.766;26.204;2023-09-19T09:19:53;101159.34;;;27.93;42.64
10008;BME280;5043;41.766;26.204;2023-09-19T09:22:19;101162.91;;;27.87;42.22
10008;BME280;5043;41.766;26.204;2023-09-19T09:24:57;101158.94;;;27.83;42.74
10008;BME280;5043;41.766;26.204;2023-09-19T09:27:31;101137.22;;;27.83;41.74
10008;BME280;5043;41.766;26.204;2023-09-19T09:29:59;101161.81;;;28.14;41.47
10008;BME280;5043;41.766;26.204;2023-09-19T09:32:34;101145.50;;;28.27;41.31
10008;BME280;5043;41.766;26.204;2023-09-19T09:35:07;101155.94;;;28.24;40.83
10008;BME280;5043;41.766;26.204;2023-09-19T09:37:37;101144.78;;;28.45;40.27
10008;BME280;5043;41.766;26.204;2023-09-19T09:40:05;101128.41;;;28.58;40.22
10008;BME280;5043;41.766;26.204;2023-09-19T09:42:42;101140.78;;;28.92;39.13
10008;BME280;5043;41.766;26.204;2023-09-19T09:45:12;101148.56;;;29.19;38.59
10008;BME280;5043;41.766;26.204;2023-09-19T09:47:46;101106.72;;;28.89;38.39
10008;BME280;5043;41.766;26.204;2023-09-19T09:50:28;101130.22;;;29.40;37.66
10008;BME280;5043;41.766;26.204;2023-09-19T09:53:02;101143.81;;;29.40;37.77
10008;BME280;5043;41.766;26.204;2023-09-19T09:55:57;101113.00;;;29.14;37.58
10008;BME280;5043;41.766;26.204;2023-09-19T09:58:25;101140.44;;;29.62;36.99
10008;BME280;5043;41.766;26.204;2023-09-19T10:00:58;101099.88;;;29.61;37.21
10008;BME280;5043;41.766;26.204;2023-09-19T10:03:39;101103.28;;;29.74;37.22
10008;BME280;5043;41.766;26.204;2023-09-19T10:06:11;101121.09;;;29.95;35.98
10008;BME280;5043;41.766;26.204;2023-09-19T10:09:08;101125.63;;;30.19;36.12
10008;BME280;5043;41.766;26.204;2023-09-19T10:12:03;101110.72;;;30.40;35.01
10008;BME280;5043;41.766;26.204;2023-09-19T10:14:30;101092.84;;;30.44;34.30
10008;BME280;5043;41.766;26.204;2023-09-19T10:17:04;101093.78;;;30.20;34.61
10008;BME280;5043;41.766;26.204;2023-09-19T10:19:46;101089.16;;;30.38;34.89
10008;BME280;5043;41.766;26.204;2023-09-19T10:22:17;101090.69;;;30.64;33.39
10008;BME280;5043;41.766;26.204;2023-09-19T10:24:53;101062.50;;;30.70;32.81
10008;BME280;5043;41.766;26.204;2023-09-19T10:27:20;101079.78;;;30.64;33.32
10008;BME280;5043;41.766;26.204;2023-09-19T10:29:51;101052.38;;;30.89;32.59
10008;BME280;5043;41.766;26.204;2023-09-19T10:32:16;101071.47;;;31.12;31.58
10008;BME280;5043;41.766;26.204;2023-09-19T10:34:46;101023.94;;;30.96;31.69
10008;BME280;5043;41.766;26.204;2023-09-19T10:37:12;101058.25;;;31.50;31.33
10008;BME280;5043;41.766;26.204;2023-09-19T10:39:39;101034.59;;;31.33;31.70
10008;BME280;5043;41.766;26.204;2023-09-19T10:42:07;101070.88;;;31.79;30.83
10008;BME280;5043;41.766;26.204;2023-09-19T10:44:42;101056.94;;;32.16;30.09
10008;BME280;5043;41.766;26.204;2023-09-19T10:47:11;101063.69;;;32.53;29.20
10008;BME280;5043;41.766;26.204;2023-09-19T10:49:44;101031.53;;;32.60;28.70
10008;BME280;5043;41.766;26.204;2023-09-19T10:52:18;101056.56;;;32.69;29.55
10008;BME280;5043;41.766;26.204;2023-09-19T10:54:48;101045.81;;;32.79;29.21
10008;BME280;5043;41.766;26.204;2023-09-19T10:57:21;101051.69;;;32.87;28.85
10008;BME280;5043;41.766;26.204;2023-09-19T11:00:08;101034.97;;;33.00;29.01
10008;BME280;5043;41.766;26.204;2023-09-19T11:05:38;101024.13;;;33.05;28.25
10008;BME280;5043;41.766;26.204;2023-09-19T11:08:09;101009.94;;;32.75;28.52
10008;BME280;5043;41.766;26.204;2023-09-19T11:10:50;101016.72;;;32.56;29.12
10008;BME280;5043;41.766;26.204;2023-09-19T11:13:29;101017.72;;;33.00;29.25
10008;BME280;5043;41.766;26.204;2023-09-19T11:16:11;101011.50;;;33.21;27.97
10008;BME280;5043;41.766;26.204;2023-09-19T11:26:43;101009.41;;;33.88;26.82
10008;BME280;5043;41.766;26.204;2023-09-19T11:29:25;100972.88;;;33.56;26.41
10008;BME280;5043;41.766;26.204;2023-09-19T11:31:51;101001.66;;;34.28;25.58
10008;BME280;5043;41.766;26.204;2023-09-19T11:37:01;100976.97;;;34.87;24.95
10008;BME280;5043;41.766;26.204;2023-09-19T11:39:30;100987.34;;;35.16;23.79
10008;BME280;5043;41.766;26.204;2023-09-19T11:41:56;100979.59;;;35.50;23.46
10008;BME280;5043;41.766;26.204;2023-09-19T11:44:33;100980.34;;;35.98;23.51
10008;BME280;5043;41.766;26.204;2023-09-19T11:47:00;100977.50;;;35.72;23.11
10008;BME280;5043;41.766;26.204;2023-09-19T11:49:30;100975.44;;;36.20;22.35
10008;BME280;5043;41.766;26.204;2023-09-19T11:51:58;100960.59;;;36.26;22.56
10008;BME280;5043;41.766;26.204;2023-09-19T11:54:31;100976.59;;;36.54;22.47
10008;BME280;5043;41.766;26.204;2023-09-19T11:56:58;100944.13;;;36.61;22.86
10008;BME280;5043;41.766;26.204;2023-09-19T11:59:29;100945.75;;;36.32;22.46
10008;BME280;5043;41.766;26.204;2023-09-19T12:01:57;100944.28;;;35.79;22.79
10008;BME280;5043;41.766;26.204;2023-09-19T12:07:09;100955.13;;;36.61;22.64
10008;BME280;5043;41.766;26.204;2023-09-19T12:09:50;100936.41;;;36.73;22.14
10008;BME280;5043;41.766;26.204;2023-09-19T12:12:26;100933.84;;;37.17;21.78
10008;BME280;5043;41.766;26.204;2023-09-19T12:14:53;100902.50;;;37.77;22.30
10008;BME280;5043;41.766;26.204;2023-09-19T12:17:19;100935.63;;;37.62;22.61
10008;BME280;5043;41.766;26.204;2023-09-19T12:19:56;100932.97;;;37.37;22.85
10008;BME280;5043;41.766;26.204;2023-09-19T12:22:23;100928.50;;;38.43;22.19
10008;BME280;5043;41.766;26.204;2023-09-19T12:24:50;100925.19;;;39.70;20.48
10008;BME280;5043;41.766;26.204;2023-09-19T12:27:21;100928.66;;;39.38;20.39
10008;BME280;5043;41.766;26.204;2023-09-19T12:29:48;100927.47;;;39.21;20.48
10008;BME280;5043;41.766;26.204;2023-09-19T12:32:14;100913.47;;;39.36;19.73
10008;BME280;5043;41.766;26.204;2023-09-19T12:34:42;100924.06;;;40.27;19.20
10008;BME280;5043;41.766;26.204;2023-09-19T12:37:12;100919.03;;;41.21;19.10
10008;BME280;5043;41.766;26.204;2023-09-19T12:53:03;100896.72;;;42.02;17.55
10008;BME280;5043;41.766;26.204;2023-09-19T12:55:30;100889.28;;;42.11;17.33
10008;BME280;5043;41.766;26.204;2023-09-19T12:58:11;100850.78;;;42.10;16.95
10008;BME280;5043;41.766;26.204;2023-09-19T13:00:42;100889.66;;;42.18;17.12
10008;BME280;5043;41.766;26.204;2023-09-19T13:05:55;100856.16;;;42.68;16.14
10008;BME280;5043;41.766;26.204;2023-09-19T13:08:24;100845.00;;;42.90;16.32
10008;BME280;5043;41.766;26.204;2023-09-19T13:11:05;100881.53;;;43.70;15.60
10008;BME280;5043;41.766;26.204;2023-09-19T13:16:26;100870.59;;;42.47;16.57
10008;BME280;5043;41.766;26.204;2023-09-19T13:18:55;100871.53;;;41.13;17.41
10008;BME280;5043;41.766;26.204;2023-09-19T13:21:28;100867.88;;;40.13;18.56
10008;BME280;5043;41.766;26.204;2023-09-19T13:23:56;100860.13;;;38.93;19.80
10008;BME280;5043;41.766;26.204;2023-09-19T13:26:27;100819.22;;;37.80;20.40
10008;BME280;5043;41.766;26.204;2023-09-19T13:28:54;100851.88;;;37.63;21.11
10008;BME280;5043;41.766;26.204;2023-09-19T13:31:20;100846.53;;;37.28;21.76
10008;BME280;5043;41.766;26.204;2023-09-19T13:33:48;100840.06;;;37.57;21.69
10008;BME280;5043;41.766;26.204;2023-09-19T13:36:14;100847.47;;;38.34;20.72
10008;BME280;5043;41.766;26.204;2023-09-19T13:38:41;100814.50;;;38.19;20.21
10008;BME280;5043;41.766;26.204;2023-09-19T13:41:11;100855.97;;;38.09;20.91
10008;BME280;5043;41.766;26.204;2023-09-19T13:43:37;100852.56;;;38.17;20.75
10008;BME280;5043;41.766;26.204;2023-09-19T13:46:04;100850.06;;;37.43;21.60
10008;BME280;5043;41.766;26.204;2023-09-19T13:48:29;100807.66;;;36.65;21.81